Time;durP1;ratioP1;P1;durP2;ratioP2;P2;SDS_P1;SDS_P2;PMS_P1;PMS_P2;Temp;Humidity;BMP_temperature;BMP_pressure;BME280_temperature;BME280_humidity;BME280_pressure;Samples;Min_cycle;Max_cycle;Signal;HPM_P1;HPM_P2
2021/03/25 00:00:16;;;;;;;77.40;44.30;;;4.40;96.80;;;;;;2053144;28;20753;-77
2021/03/25 00:01:20;;;;;;;78.65;44.80;;;4.40;96.50;;;;;;2058359;28;20565;-77
2021/03/25 00:02:21;;;;;;;79.57;45.97;;;4.40;96.50;;;;;;2060729;28;20039;-78
2021/03/25 00:03:22;;;;;;;81.88;45.72;;;4.40;96.60;;;;;;2061878;28;20106;-77
2021/03/25 00:04:23;;;;;;;79.28;45.88;;;4.40;96.50;;;;;;2018245;29;20037;-77
2021/03/25 00:05:25;;;;;;;79.22;45.20;;;4.30;96.50;;;;;;2057863;28;20073;-77
2021/03/25 00:06:27;;;;;;;73.25;43.03;;;4.30;96.50;;;;;;2056572;28;20090;-76
2021/03/25 00:07:28;;;;;;;80.35;46.30;;;4.30;96.50;;;;;;2057415;28;20027;-76
2021/03/25 00:08:28;;;;;;;77.45;45.10;;;4.30;96.50;;;;;;2049217;29;20027;-76
2021/03/25 00:09:34;;;;;;;73.10;43.25;;;4.30;96.60;;;;;;2016595;29;20409;-76
2021/03/25 00:10:36;;;;;;;77.03;44.33;;;4.30;96.60;;;;;;2017010;29;20025;-76
2021/03/25 00:11:37;;;;;;;81.82;46.08;;;4.30;96.60;;;;;;2016620;29;20102;-77
2021/03/25 00:12:37;;;;;;;77.13;44.17;;;4.30;96.60;;;;;;2016021;29;20029;-76
2021/03/25 00:13:38;;;;;;;73.78;43.65;;;4.30;96.60;;;;;;2016556;29;20028;-76
2021/03/25 00:14:39;;;;;;;73.20;43.67;;;4.30;96.70;;;;;;2016220;29;20444;-76
2021/03/25 00:15:40;;;;;;;75.32;43.15;;;4.30;96.70;;;;;;2015966;29;20061;-76
2021/03/25 00:16:41;;;;;;;88.15;48.53;;;4.30;96.70;;;;;;2016142;29;20491;-76
2021/03/25 00:17:41;;;;;;;85.72;48.40;;;4.20;96.70;;;;;;2056701;28;20077;-77
2021/03/25 00:18:42;;;;;;;89.68;48.40;;;4.20;96.70;;;;;;2048576;28;20035;-76
2021/03/25 00:19:43;;;;;;;83.18;47.30;;;4.20;96.70;;;;;;2016145;29;20029;-76
2021/03/25 00:20:44;;;;;;;83.78;47.70;;;4.20;96.70;;;;;;2016665;29;20522;-76
2021/03/25 00:21:45;;;;;;;81.22;46.53;;;4.20;96.70;;;;;;2016393;29;20037;-76
2021/03/25 00:22:46;;;;;;;83.00;47.03;;;4.20;96.70;;;;;;2016103;29;20037;-76
2021/03/25 00:23:46;;;;;;;80.45;45.55;;;4.20;96.70;;;;;;2016828;29;20039;-76
2021/03/25 00:24:47;;;;;;;74.85;42.75;;;4.20;96.70;;;;;;2056368;28;20034;-76
2021/03/25 00:25:48;;;;;;;77.22;43.40;;;4.20;96.70;;;;;;2048395;29;20030;-76
2021/03/25 00:26:49;;;;;;;76.57;44.05;;;4.20;96.70;;;;;;2048595;29;20050;-76
2021/03/25 00:27:49;;;;;;;80.45;46.42;;;4.20;96.70;;;;;;2056345;28;20046;-76
2021/03/25 00:28:50;;;;;;;83.47;46.97;;;4.20;96.70;;;;;;2016285;29;20033;-76
2021/03/25 00:29:50;;;;;;;81.55;46.40;;;4.20;96.80;;;;;;2049990;29;20050;-76
2021/03/25 00:30:51;;;;;;;76.75;44.85;;;4.10;96.70;;;;;;2058838;28;20054;-76
2021/03/25 00:31:52;;;;;;;73.30;42.78;;;4.20;96.80;;;;;;2018338;29;20025;-76
2021/03/25 00:32:53;;;;;;;77.97;44.13;;;4.20;97.10;;;;;;2050100;29;20134;-76
2021/03/25 00:33:54;;;;;;;79.75;44.97;;;4.20;96.90;;;;;;2041617;29;20059;-76
2021/03/25 00:34:55;;;;;;;79.93;45.13;;;4.20;96.80;;;;;;2017581;29;20037;-77
2021/03/25 00:35:55;;;;;;;81.40;44.90;;;4.20;96.80;;;;;;2016690;29;20032;-77
2021/03/25 00:36:56;;;;;;;79.95;45.25;;;4.10;96.80;;;;;;2016711;29;20060;-76
2021/03/25 00:37:57;;;;;;;75.25;44.33;;;4.10;96.80;;;;;;2017355;29;20047;-78
2021/03/25 00:38:58;;;;;;;82.43;47.38;;;4.10;96.80;;;;;;2016537;29;20029;-78
2021/03/25 00:39:59;;;;;;;78.38;44.70;;;4.10;96.80;;;;;;2016791;29;20112;-78
2021/03/25 00:41:00;;;;;;;79.72;46.17;;;4.10;96.80;;;;;;2017266;29;20025;-78
2021/03/25 00:42:01;;;;;;;85.13;46.55;;;4.10;96.80;;;;;;2017300;29;20026;-78
2021/03/25 00:43:05;;;;;;;80.97;46.13;;;4.10;96.90;;;;;;2056935;28;20027;-79
2021/03/25 00:44:10;;;;;;;81.00;45.22;;;4.10;96.80;;;;;;2047958;29;20023;-78
2021/03/25 00:45:16;;;;;;;77.88;44.85;;;4.10;96.80;;;;;;2017380;29;20033;-79
2021/03/25 00:46:17;;;;;;;77.00;44.78;;;4.10;96.80;;;;;;2016662;29;20412;-77
2021/03/25 00:47:17;;;;;;;79.30;44.83;;;4.10;97.20;;;;;;2016596;29;20060;-78
2021/03/25 00:48:21;;;;;;;76.07;44.42;;;4.10;96.80;;;;;;2016533;29;20141;-76
2021/03/25 00:49:22;;;;;;;69.38;41.45;;;4.10;96.80;;;;;;2016109;29;20032;-76
2021/03/25 00:50:31;;;;;;;75.75;43.35;;;4.10;96.90;;;;;;2016702;29;20025;-76
2021/03/25 00:51:32;;;;;;;75.78;44.05;;;4.00;96.80;;;;;;2016095;29;20434;-77
2021/03/25 00:52:33;;;;;;;75.95;43.97;;;4.00;96.90;;;;;;2048443;28;20086;-77
2021/03/25 00:53:36;;;;;;;76.82;44.92;;;4.00;96.80;;;;;;2048536;29;20517;-77
2021/03/25 00:54:37;;;;;;;76.68;44.03;;;4.00;96.80;;;;;;2008760;29;20030;-78
2021/03/25 00:55:38;;;;;;;72.65;43.17;;;4.00;96.80;;;;;;2016279;29;20032;-78
2021/03/25 00:56:39;;;;;;;73.90;43.47;;;4.00;96.80;;;;;;2017449;29;20033;-77
2021/03/25 00:57:39;;;;;;;72.68;43.35;;;4.00;96.80;;;;;;2016111;29;20548;-78
2021/03/25 00:58:40;;;;;;;73.10;42.75;;;4.00;96.80;;;;;;2008150;29;20370;-76
2021/03/25 00:59:41;;;;;;;74.43;43.13;;;4.00;96.80;;;;;;2015560;29;20128;-76
2021/03/25 01:00:43;;;;;;;77.60;43.78;;;4.00;96.80;;;;;;2048111;29;20435;-78
2021/03/25 01:01:44;;;;;;;75.05;42.97;;;4.00;96.80;;;;;;2039859;29;20496;-77
2021/03/25 01:02:46;;;;;;;76.82;43.45;;;4.00;96.80;;;;;;2008530;29;20123;-77
2021/03/25 01:03:46;;;;;;;73.70;43.33;;;4.00;96.90;;;;;;2016993;29;20065;-79
2021/03/25 01:04:47;;;;;;;73.57;43.17;;;4.00;96.90;;;;;;2017436;29;20029;-79
2021/03/25 01:05:48;;;;;;;75.50;43.42;;;4.00;96.90;;;;;;2017187;29;20513;-76
2021/03/25 01:06:49;;;;;;;78.88;46.00;;;3.90;96.90;;;;;;2016829;29;20033;-77
2021/03/25 01:07:50;;;;;;;77.10;44.00;;;3.90;96.90;;;;;;2017435;29;20405;-77
2021/03/25 01:08:52;;;;;;;71.75;42.72;;;3.90;96.90;;;;;;2058363;28;20822;-77
2021/03/25 01:09:53;;;;;;;105.63;58.15;;;4.00;96.90;;;;;;2050130;29;20024;-77
2021/03/25 01:11:05;;;;;;;109.43;61.63;;;3.90;96.90;;;;;;2050042;28;20098;-77
2021/03/25 01:12:06;;;;;;;180.13;103.45;;;3.90;96.90;;;;;;2045248;29;20031;-76
2021/03/25 01:13:22;;;;;;;149.63;85.20;;;3.90;96.80;;;;;;2048828;28;20042;-79
2021/03/25 01:14:24;;;;;;;112.55;63.08;;;3.90;97.00;;;;;;2041261;29;20023;-77
2021/03/25 01:15:25;;;;;;;102.05;58.28;;;3.90;97.00;;;;;;2016382;29;20040;-79
2021/03/25 01:16:30;;;;;;;92.75;52.95;;;3.90;96.90;;;;;;2016401;29;20120;-77
2021/03/25 01:17:31;;;;;;;87.57;50.03;;;3.90;96.90;;;;;;2009141;29;20449;-77
2021/03/25 01:18:32;;;;;;;83.03;47.45;;;3.90;96.80;;;;;;2016199;29;20041;-77
2021/03/25 01:19:33;;;;;;;79.22;46.22;;;3.90;96.80;;;;;;2016793;29;20060;-77
2021/03/25 01:20:38;;;;;;;77.57;44.90;;;3.90;96.70;;;;;;2017213;29;20061;-77
2021/03/25 01:21:40;;;;;;;83.10;46.60;;;3.90;96.80;;;;;;2056322;28;20030;-77
2021/03/25 01:22:41;;;;;;;79.75;45.17;;;3.90;96.80;;;;;;2055816;28;20033;-77
2021/03/25 01:23:41;;;;;;;78.05;45.45;;;3.90;96.80;;;;;;2015860;29;20029;-77
2021/03/25 01:24:42;;;;;;;77.75;44.50;;;3.90;96.80;;;;;;2015811;29;20032;-77
2021/03/25 01:25:43;;;;;;;74.93;43.30;;;3.80;96.80;;;;;;2056107;28;20038;-77
2021/03/25 01:26:44;;;;;;;75.95;43.25;;;3.80;96.80;;;;;;2055915;28;20030;-77
2021/03/25 01:27:48;;;;;;;73.65;42.15;;;3.80;96.90;;;;;;2016375;29;20369;-77
2021/03/25 01:28:49;;;;;;;76.47;43.25;;;3.80;96.90;;;;;;2056043;28;20529;-77
2021/03/25 01:29:49;;;;;;;80.32;45.20;;;3.80;96.90;;;;;;2047916;29;20027;-77
2021/03/25 01:30:50;;;;;;;76.68;43.75;;;3.80;97.00;;;;;;2015731;29;20032;-77
2021/03/25 01:31:51;;;;;;;74.28;42.47;;;3.80;96.90;;;;;;2048231;29;20061;-77
2021/03/25 01:32:53;;;;;;;74.05;43.58;;;3.80;96.90;;;;;;2056061;28;20031;-77
2021/03/25 01:33:53;;;;;;;73.15;41.97;;;3.70;97.00;;;;;;2023522;29;20017;-77
2021/03/25 01:34:55;;;;;;;76.25;43.50;;;3.70;97.00;;;;;;2056346;28;20027;-77
2021/03/25 01:35:56;;;;;;;77.05;43.47;;;3.80;97.00;;;;;;2048196;29;20383;-77
2021/03/25 01:36:57;;;;;;;74.90;43.25;;;3.70;97.00;;;;;;2047959;29;20122;-77
2021/03/25 01:38:00;;;;;;;75.47;42.30;;;3.70;97.00;;;;;;2046856;29;20142;-76
2021/03/25 01:39:03;;;;;;;72.32;41.20;;;3.70;97.10;;;;;;2047687;28;20027;-77
2021/03/25 01:40:20;;;;;;;73.47;41.80;;;3.70;97.10;;;;;;2055037;28;20030;-77
2021/03/25 01:41:26;;;;;;;74.32;42.15;;;3.70;97.10;;;;;;2056217;28;20494;-77
2021/03/25 01:42:32;;;;;;;79.05;43.05;;;3.70;97.20;;;;;;2053420;28;20125;-77
2021/03/25 01:43:37;;;;;;;71.50;42.85;;;3.70;97.10;;;;;;2016284;29;20033;-77
2021/03/25 01:44:39;;;;;;;75.90;43.33;;;3.70;97.10;;;;;;2056208;28;20023;-77
2021/03/25 01:45:59;;;;;;;76.80;43.50;;;3.70;97.00;;;;;;2045605;29;20030;-77
2021/03/25 01:47:00;;;;;;;76.75;43.22;;;3.70;97.00;;;;;;2051580;28;20123;-77
2021/03/25 01:48:01;;;;;;;76.78;43.10;;;3.70;97.10;;;;;;2057276;28;20035;-78
2021/03/25 01:49:07;;;;;;;77.50;44.30;;;3.60;97.00;;;;;;2049360;28;20032;-78
2021/03/25 01:50:10;;;;;;;76.53;42.28;;;3.60;97.10;;;;;;2045533;28;20038;-78
2021/03/25 01:51:49;;;;;;;76.50;42.95;;;3.60;97.10;;;;;;2016767;29;20036;-78
2021/03/25 01:52:53;;;;;;;77.90;42.97;;;3.60;97.10;;;;;;2015831;29;20033;-77
2021/03/25 01:54:03;;;;;;;75.72;43.03;;;3.60;97.10;;;;;;2048600;28;20041;-78
2021/03/25 01:55:33;;;;;;;77.00;45.13;;;3.60;97.10;;;;;;2042947;29;20034;-77
2021/03/25 01:56:39;;;;;;;79.15;44.75;;;3.60;97.20;;;;;;2052061;28;20027;-77
2021/03/25 01:58:01;;;;;;;79.25;43.78;;;3.50;97.20;;;;;;2045266;29;20102;-77
2021/03/25 01:59:18;;;;;;;80.03;43.85;;;3.50;97.20;;;;;;2051764;28;20122;-77
2021/03/25 02:00:32;;;;;;;84.88;46.63;;;3.50;97.20;;;;;;2042434;29;20031;-76
2021/03/25 02:01:43;;;;;;;83.72;44.83;;;3.50;97.20;;;;;;2018102;29;20041;-77
2021/03/25 02:02:55;;;;;;;80.72;44.83;;;3.50;97.20;;;;;;2023237;29;20039;-76
2021/03/25 02:04:21;;;;;;;77.25;43.42;;;3.50;97.30;;;;;;2016185;29;20073;-77
2021/03/25 02:06:02;;;;;;;82.40;44.88;;;3.50;97.30;;;;;;2051399;28;20027;-77
2021/03/25 02:07:30;;;;;;;81.88;44.90;;;3.40;97.30;;;;;;2037262;29;20384;-77
2021/03/25 02:08:58;;;;;;;79.03;43.85;;;3.40;97.30;;;;;;2052278;28;20510;-77
2021/03/25 02:10:17;;;;;;;80.57;44.45;;;3.50;97.30;;;;;;2034274;29;20021;-77
2021/03/25 02:12:02;;;;;;;79.57;43.70;;;3.50;97.50;;;;;;2045076;29;20376;-77
2021/03/25 02:13:12;;;;;;;76.68;42.50;;;3.40;97.40;;;;;;2020027;29;20026;-77
2021/03/25 02:14:29;;;;;;;77.90;42.50;;;3.40;97.40;;;;;;2009667;29;20042;-77
2021/03/25 02:16:04;;;;;;;82.05;45.00;;;3.40;97.70;;;;;;2003191;29;20026;-78
2021/03/25 02:17:29;;;;;;;79.25;43.45;;;3.40;97.40;;;;;;2012179;29;20029;-78
2021/03/25 02:19:21;;;;;;;79.63;42.88;;;3.40;97.40;;;;;;2016398;29;20172;-77
2021/03/25 02:20:59;;;;;;;79.47;43.63;;;3.40;97.40;;;;;;2019280;29;20578;-77
2021/03/25 02:22:08;;;;;;;78.43;44.17;;;3.40;97.40;;;;;;2056692;28;20030;-77
2021/03/25 02:23:28;;;;;;;85.28;45.17;;;3.40;97.50;;;;;;2043817;29;20031;-77
2021/03/25 02:24:46;;;;;;;79.95;42.97;;;3.40;97.50;;;;;;2050898;28;20057;-77
2021/03/25 02:26:10;;;;;;;81.40;43.97;;;3.40;97.50;;;;;;2037014;29;20512;-77
2021/03/25 02:27:36;;;;;;;80.40;43.15;;;3.40;97.40;;;;;;2017972;29;20508;-77
2021/03/25 02:29:12;;;;;;;79.05;43.97;;;3.40;97.60;;;;;;2009832;29;20029;-78
2021/03/25 02:30:41;;;;;;;76.25;42.38;;;3.40;97.40;;;;;;2011042;29;20107;-77
2021/03/25 02:31:46;;;;;;;78.82;43.08;;;3.30;97.40;;;;;;2045513;29;20031;-77
2021/03/25 02:32:59;;;;;;;79.65;44.47;;;3.30;97.40;;;;;;2018050;29;20022;-77
2021/03/25 02:34:12;;;;;;;79.38;44.33;;;3.30;97.50;;;;;;2058140;28;20027;-77
2021/03/25 02:35:29;;;;;;;76.47;43.15;;;3.30;97.50;;;;;;2054215;28;20098;-79
2021/03/25 02:36:39;;;;;;;78.13;43.80;;;3.30;97.60;;;;;;2018574;29;20057;-77
2021/03/25 02:37:47;;;;;;;79.55;42.53;;;3.30;97.60;;;;;;2058256;28;20078;-78
2021/03/25 02:38:54;;;;;;;77.55;43.05;;;3.30;97.60;;;;;;2048484;28;20036;-78
2021/03/25 02:40:11;;;;;;;83.47;45.35;;;3.30;97.60;;;;;;2018146;29;20041;-77
2021/03/25 02:41:33;;;;;;;81.60;44.75;;;3.20;97.60;;;;;;2021349;29;20100;-78
2021/03/25 02:42:49;;;;;;;81.10;46.00;;;3.20;97.50;;;;;;2057219;28;20028;-77
2021/03/25 02:44:05;;;;;;;81.60;45.03;;;3.20;97.60;;;;;;2041880;29;20035;-77
2021/03/25 02:45:27;;;;;;;81.95;44.75;;;3.20;97.60;;;;;;2052665;28;20063;-77
2021/03/25 02:46:37;;;;;;;83.90;45.53;;;3.20;97.60;;;;;;2045087;28;20173;-77
2021/03/25 02:47:45;;;;;;;82.90;45.55;;;3.20;97.60;;;;;;2058362;28;20057;-77
2021/03/25 02:48:49;;;;;;;85.18;45.40;;;3.20;97.70;;;;;;2047835;28;20023;-77
2021/03/25 02:50:00;;;;;;;84.18;46.17;;;3.20;97.70;;;;;;2017564;29;20026;-77
2021/03/25 02:51:15;;;;;;;85.97;46.50;;;3.20;97.70;;;;;;2058153;28;20410;-77
2021/03/25 02:52:41;;;;;;;82.60;45.17;;;3.20;97.70;;;;;;2049192;28;20097;-77
2021/03/25 02:53:45;;;;;;;81.90;45.08;;;3.20;97.70;;;;;;2058459;28;20450;-77
2021/03/25 02:54:47;;;;;;;82.20;45.45;;;3.20;97.70;;;;;;2056698;28;20470;-77
2021/03/25 02:55:51;;;;;;;81.72;45.88;;;3.20;97.70;;;;;;2017505;29;20017;-77
2021/03/25 02:57:11;;;;;;;80.53;45.13;;;3.20;97.80;;;;;;2018049;29;20044;-77
2021/03/25 02:58:18;;;;;;;;;;;3.20;97.70;;;;;;2018168;29;20025;-77
2021/03/25 02:59:26;;;;;;;83.30;45.10;;;3.20;97.70;;;;;;2018235;29;20486;-78
2021/03/25 03:00:53;;;;;;;84.10;45.85;;;3.20;97.70;;;;;;2050567;29;20666;-78
2021/03/25 03:02:02;;;;;;;82.18;45.20;;;3.20;97.70;;;;;;2036275;29;20033;-77
2021/03/25 03:03:34;;;;;;;86.57;46.72;;;3.10;97.60;;;;;;2011271;29;20033;-76
2021/03/25 03:04:57;;;;;;;83.43;45.28;;;3.10;97.70;;;;;;2017896;29;20056;-77
2021/03/25 03:06:00;;;;;;;83.32;45.88;;;3.10;97.70;;;;;;2050037;29;20050;-76
2021/03/25 03:07:16;;;;;;;86.40;46.55;;;3.10;97.70;;;;;;2047815;29;20030;-78
2021/03/25 03:08:31;;;;;;;82.32;45.08;;;3.20;97.70;;;;;;2020598;29;20115;-77
2021/03/25 03:09:38;;;;;;;81.90;45.42;;;3.20;98.10;;;;;;2009509;29;20112;-77
2021/03/25 03:10:52;;;;;;;85.28;45.38;;;3.10;97.70;;;;;;2003693;29;20030;-77
2021/03/25 03:11:57;;;;;;;81.45;45.90;;;3.20;97.70;;;;;;2017594;29;20017;-78
2021/03/25 03:13:03;;;;;;;77.03;43.58;;;3.20;97.70;;;;;;2057945;28;20026;-76
2021/03/25 03:14:09;;;;;;;78.32;43.67;;;3.10;97.70;;;;;;2048382;29;20076;-77
2021/03/25 03:15:18;;;;;;;79.47;44.72;;;3.10;97.70;;;;;;2017711;29;20029;-77
2021/03/25 03:16:28;;;;;;;83.97;45.00;;;3.10;97.70;;;;;;2018817;29;20096;-78
2021/03/25 03:17:44;;;;;;;83.32;45.90;;;3.20;97.80;;;;;;2017573;29;20120;-77
2021/03/25 03:20:01;;;;;;;85.40;46.22;;;3.20;97.70;;;;;;2049301;28;20059;-78
2021/03/25 03:21:08;;;;;;;79.05;44.17;;;3.20;97.70;;;;;;2025024;29;20040;-79
2021/03/25 03:22:27;;;;;;;85.43;45.45;;;3.10;97.70;;;;;;2058658;28;20026;-78
2021/03/25 03:23:37;;;;;;;83.57;45.03;;;3.10;97.60;;;;;;2052333;28;20051;-78
2021/03/25 03:24:38;;;;;;;79.70;44.72;;;3.10;97.60;;;;;;2019161;29;20072;-77
2021/03/25 03:26:01;;;;;;;85.88;45.67;;;3.10;97.60;;;;;;2059030;28;20081;-77
2021/03/25 03:27:10;;;;;;;82.33;45.50;;;3.10;97.60;;;;;;2048141;29;20087;-78
2021/03/25 03:28:15;;;;;;;90.63;46.60;;;3.10;97.60;;;;;;2052155;28;20027;-78
2021/03/25 03:29:19;;;;;;;84.22;45.83;;;3.10;97.60;;;;;;2048029;28;20019;-77
2021/03/25 03:30:29;;;;;;;85.10;45.97;;;3.10;97.60;;;;;;2018373;29;20080;-77
2021/03/25 03:32:25;;;;;;;90.80;46.42;;;3.10;97.60;;;;;;2021863;28;20048;-77
2021/03/25 03:33:31;;;;;;;87.22;46.65;;;3.10;97.60;;;;;;2024562;29;20520;-77
2021/03/25 03:34:43;;;;;;;86.60;46.50;;;3.10;97.60;;;;;;2018557;29;20108;-77
2021/03/25 03:35:56;;;;;;;85.75;46.05;;;3.10;97.60;;;;;;2018826;29;20085;-77
2021/03/25 03:37:05;;;;;;;88.13;47.28;;;3.10;97.60;;;;;;2017236;29;20037;-77
2021/03/25 03:38:16;;;;;;;97.90;49.63;;;3.10;97.60;;;;;;2051042;28;20067;-77
2021/03/25 03:39:30;;;;;;;99.53;50.10;;;3.10;97.60;;;;;;2039401;28;20403;-77
2021/03/25 03:40:37;;;;;;;97.35;50.42;;;3.10;97.60;;;;;;2042053;29;20448;-77
2021/03/25 03:41:45;;;;;;;92.35;47.78;;;3.10;97.60;;;;;;2047820;28;20035;-77
2021/03/25 03:42:46;;;;;;;86.47;45.90;;;3.10;97.60;;;;;;2017150;29;20037;-77
2021/03/25 03:43:49;;;;;;;88.40;46.08;;;3.00;97.60;;;;;;2009582;29;20111;-77
2021/03/25 03:44:54;;;;;;;85.72;46.00;;;3.00;97.60;;;;;;2017279;29;20029;-77
2021/03/25 03:46:05;;;;;;;84.65;46.05;;;3.00;97.60;;;;;;2057444;28;20045;-77
2021/03/25 03:47:09;;;;;;;86.45;46.17;;;3.00;97.60;;;;;;2045757;29;20073;-77
2021/03/25 03:48:25;;;;;;;91.47;48.13;;;3.00;97.60;;;;;;2050125;28;20051;-76
2021/03/25 03:49:46;;;;;;;86.28;46.05;;;3.00;97.60;;;;;;2048163;28;20046;-78
2021/03/25 03:50:53;;;;;;;84.55;44.50;;;3.00;97.70;;;;;;2057892;28;20027;-77
2021/03/25 03:52:08;;;;;;;86.07;45.75;;;3.00;97.70;;;;;;2045734;29;20034;-78
2021/03/25 03:53:14;;;;;;;85.93;46.17;;;3.00;97.70;;;;;;2016988;29;20037;-77
2021/03/25 03:54:15;;;;;;;86.82;46.58;;;3.00;97.70;;;;;;2059255;28;20657;-77
2021/03/25 03:55:19;;;;;;;91.43;47.30;;;3.00;97.60;;;;;;2048836;29;20082;-76
2021/03/25 03:56:59;;;;;;;87.95;47.33;;;3.00;97.60;;;;;;2049798;28;20033;-77
2021/03/25 03:58:08;;;;;;;87.97;45.47;;;3.00;97.60;;;;;;2027129;29;20115;-76
2021/03/25 03:59:14;;;;;;;92.90;48.08;;;3.00;97.60;;;;;;2009899;29;20026;-76
2021/03/25 04:00:34;;;;;;;86.45;46.38;;;3.00;97.60;;;;;;2016990;29;20438;-77
2021/03/25 04:01:48;;;;;;;83.53;46.25;;;3.00;97.60;;;;;;2044332;29;20093;-77
2021/03/25 04:02:51;;;;;;;175.80;114.85;;;3.00;97.70;;;;;;2038510;29;20027;-77
2021/03/25 04:04:33;;;;;;;139.20;83.53;;;3.00;97.70;;;;;;2042652;29;20031;-77
2021/03/25 04:06:06;;;;;;;121.40;67.35;;;3.00;97.70;;;;;;2049229;29;20394;-77
2021/03/25 04:07:25;;;;;;;112.15;62.92;;;3.00;97.60;;;;;;2036919;29;20587;-77
2021/03/25 04:08:55;;;;;;;98.47;53.33;;;3.00;97.50;;;;;;2011676;29;20045;-77
2021/03/25 04:10:26;;;;;;;92.13;50.20;;;3.00;97.50;;;;;;2012784;29;20080;-77
2021/03/25 04:11:36;;;;;;;89.15;48.60;;;3.00;97.60;;;;;;2005341;29;20454;-76
2021/03/25 04:12:41;;;;;;;90.80;48.70;;;3.00;97.60;;;;;;2010455;29;20103;-76
2021/03/25 04:13:50;;;;;;;90.60;48.53;;;3.00;97.50;;;;;;2017629;29;20036;-76
2021/03/25 04:15:15;;;;;;;84.50;45.92;;;2.90;97.50;;;;;;2057221;28;20384;-76
2021/03/25 04:16:26;;;;;;;88.28;45.58;;;2.90;97.50;;;;;;2032335;29;20029;-76
2021/03/25 04:17:32;;;;;;;88.60;46.78;;;2.90;97.60;;;;;;2041659;29;20039;-76
2021/03/25 04:18:45;;;;;;;87.97;46.10;;;2.90;97.60;;;;;;2037715;29;20503;-76
2021/03/25 04:20:11;;;;;;;;;;;2.90;97.50;;;;;;2053791;28;20035;-76
2021/03/25 04:21:37;;;;;;;86.32;45.15;;;2.90;97.50;;;;;;2042287;28;19908;-75
2021/03/25 04:22:43;;;;;;;94.32;47.88;;;2.90;97.60;;;;;;2017388;29;20116;-78
2021/03/25 04:23:44;;;;;;;90.68;49.05;;;2.90;97.60;;;;;;2017602;29;20052;-76
2021/03/25 04:24:51;;;;;;;89.70;48.85;;;2.90;97.60;;;;;;2057248;28;20402;-76
2021/03/25 04:26:19;;;;;;;87.05;48.08;;;2.80;97.50;;;;;;2054314;28;20038;-77
2021/03/25 04:27:39;;;;;;;86.60;46.42;;;2.90;97.60;;;;;;2017426;28;20096;-78
2021/03/25 04:28:47;;;;;;;89.18;48.05;;;2.80;97.60;;;;;;2017408;29;20037;-77
2021/03/25 04:29:54;;;;;;;93.40;48.85;;;2.80;97.50;;;;;;2016908;29;20485;-77
2021/03/25 04:30:55;;;;;;;93.10;48.92;;;2.80;97.50;;;;;;2016991;29;20039;-76
2021/03/25 04:31:57;;;;;;;84.90;46.90;;;2.80;97.50;;;;;;2018547;29;20036;-77
2021/03/25 04:32:58;;;;;;;84.90;46.20;;;2.80;97.90;;;;;;2017571;29;20039;-75
2021/03/25 04:34:00;;;;;;;85.70;46.97;;;2.80;97.60;;;;;;2018474;29;20481;-76
2021/03/25 04:35:03;;;;;;;87.97;47.72;;;2.80;97.70;;;;;;2018911;29;20032;-76
2021/03/25 04:36:09;;;;;;;88.20;46.78;;;2.80;97.60;;;;;;2018411;29;20037;-75
2021/03/25 04:37:10;;;;;;;85.65;46.42;;;2.80;97.60;;;;;;2017764;29;20021;-77
2021/03/25 04:38:16;;;;;;;91.50;48.10;;;2.80;97.50;;;;;;2016871;29;20029;-77
2021/03/25 04:39:19;;;;;;;86.30;46.67;;;2.80;97.50;;;;;;2016981;29;20037;-77
2021/03/25 04:40:29;;;;;;;93.32;47.80;;;2.80;97.60;;;;;;2016740;29;20025;-77
2021/03/25 04:41:31;;;;;;;95.10;50.90;;;2.80;97.60;;;;;;2016858;29;20100;-77
2021/03/25 04:42:32;;;;;;;94.47;48.95;;;2.80;97.50;;;;;;2017265;29;20055;-77
2021/03/25 04:43:32;;;;;;;85.70;47.38;;;2.80;97.50;;;;;;2017237;29;20025;-77
2021/03/25 04:44:42;;;;;;;85.95;47.85;;;2.80;97.50;;;;;;2017238;29;20037;-77
2021/03/25 04:45:54;;;;;;;87.75;47.95;;;2.80;97.40;;;;;;2016698;29;20104;-77
2021/03/25 04:47:04;;;;;;;88.82;48.08;;;2.80;97.50;;;;;;2016790;29;20148;-77
2021/03/25 04:48:10;;;;;;;84.13;45.50;;;2.80;97.50;;;;;;2016006;29;20041;-77
2021/03/25 04:49:16;;;;;;;86.07;46.00;;;2.80;97.50;;;;;;2016408;29;20033;-77
2021/03/25 04:50:48;;;;;;;87.07;48.05;;;2.80;97.50;;;;;;2017014;29;20037;-76
2021/03/25 04:51:57;;;;;;;95.60;50.67;;;2.80;97.50;;;;;;2017171;29;20049;-77
2021/03/25 04:53:07;;;;;;;95.45;50.15;;;2.90;97.50;;;;;;2018044;29;20460;-77
2021/03/25 04:54:25;;;;;;;99.15;51.38;;;2.90;97.50;;;;;;2017044;29;20029;-76
2021/03/25 04:55:26;;;;;;;92.80;49.10;;;2.90;97.40;;;;;;2052222;28;20485;-76
2021/03/25 04:56:27;;;;;;;89.20;48.15;;;2.90;97.40;;;;;;2057797;28;20063;-76
2021/03/25 04:57:34;;;;;;;91.15;49.00;;;2.80;97.30;;;;;;2017947;29;20033;-76
2021/03/25 04:58:39;;;;;;;88.53;48.20;;;2.90;97.30;;;;;;2017893;29;20036;-76
2021/03/25 04:59:40;;;;;;;89.40;46.33;;;2.90;97.30;;;;;;2017325;29;20037;-76
2021/03/25 05:00:42;;;;;;;89.55;48.22;;;2.90;97.30;;;;;;2016610;29;20499;-76
2021/03/25 05:01:43;;;;;;;85.40;47.40;;;2.90;97.30;;;;;;2016994;29;20041;-76
2021/03/25 05:02:44;;;;;;;91.25;48.33;;;2.90;97.30;;;;;;2057394;28;20035;-76
2021/03/25 05:03:47;;;;;;;89.20;48.95;;;2.90;97.20;;;;;;2049155;29;20030;-76
2021/03/25 05:04:50;;;;;;;89.63;48.55;;;2.90;97.30;;;;;;2049745;28;20023;-76
2021/03/25 05:05:56;;;;;;;89.60;47.90;;;2.90;97.20;;;;;;2047684;29;20038;-76
2021/03/25 05:07:00;;;;;;;85.95;46.90;;;2.90;97.10;;;;;;2016718;29;20021;-77
2021/03/25 05:08:07;;;;;;;83.05;47.03;;;2.90;97.10;;;;;;2017301;29;20036;-76
2021/03/25 05:09:15;;;;;;;87.20;47.50;;;2.90;97.30;;;;;;2017336;29;20044;-76
2021/03/25 05:10:21;;;;;;;85.30;47.88;;;3.00;97.30;;;;;;2016869;29;20040;-76
2021/03/25 05:11:25;;;;;;;87.72;48.45;;;3.00;97.20;;;;;;2049783;28;20434;-77
2021/03/25 05:12:26;;;;;;;85.05;46.58;;;3.00;97.20;;;;;;2056230;28;20062;-77
2021/03/25 05:13:35;;;;;;;90.05;48.78;;;3.00;97.10;;;;;;2058751;28;20026;-76
2021/03/25 05:14:36;;;;;;;85.47;46.97;;;3.00;97.00;;;;;;2052213;28;20029;-77
2021/03/25 05:15:36;;;;;;;88.25;47.40;;;3.10;96.90;;;;;;2017178;29;20503;-77
2021/03/25 05:17:06;;;;;;;86.15;46.83;;;3.10;96.90;;;;;;2017218;29;20088;-77
2021/03/25 05:18:24;;;;;;;86.90;46.42;;;3.10;96.90;;;;;;2017156;29;20045;-76
2021/03/25 05:19:53;;;;;;;90.55;48.67;;;3.10;96.80;;;;;;2017165;29;20519;-76
2021/03/25 05:21:05;;;;;;;94.75;51.65;;;3.20;97.00;;;;;;2017132;29;20064;-77
2021/03/25 05:22:28;;;;;;;99.63;54.22;;;3.20;96.60;;;;;;2056832;28;20166;-77
2021/03/25 05:23:45;;;;;;;97.53;51.80;;;3.20;96.70;;;;;;2042700;28;20480;-77
2021/03/25 05:25:07;;;;;;;94.22;51.78;;;3.30;96.50;;;;;;2017071;29;20608;-77
2021/03/25 05:26:14;;;;;;;89.85;49.08;;;3.30;96.30;;;;;;2016969;29;20113;-77
2021/03/25 05:27:30;;;;;;;90.63;50.13;;;3.40;96.30;;;;;;2017159;29;20366;-77
2021/03/25 05:28:38;;;;;;;88.65;49.88;;;3.40;96.20;;;;;;2017067;29;20033;-77
2021/03/25 05:29:41;;;;;;;88.43;48.45;;;3.40;96.10;;;;;;2016248;29;20033;-77
2021/03/25 05:30:44;;;;;;;85.88;47.80;;;3.40;96.00;;;;;;2016446;29;20064;-77
2021/03/25 05:31:46;;;;;;;86.95;48.65;;;3.50;96.00;;;;;;2017090;29;20507;-77
2021/03/25 05:32:51;;;;;;;86.63;49.42;;;3.50;95.80;;;;;;2017027;29;20088;-77
2021/03/25 05:33:55;;;;;;;99.18;54.35;;;3.60;95.70;;;;;;2017232;29;20496;-77
2021/03/25 05:34:59;;;;;;;101.43;55.85;;;3.60;95.60;;;;;;2017228;29;20033;-77
2021/03/25 05:36:04;;;;;;;99.18;56.10;;;3.70;95.70;;;;;;2016936;29;20365;-77
2021/03/25 05:37:07;;;;;;;98.97;54.50;;;3.70;95.50;;;;;;2016876;29;20052;-77
2021/03/25 05:38:08;;;;;;;91.88;52.25;;;3.70;95.40;;;;;;2016873;29;20088;-77
2021/03/25 05:39:09;;;;;;;89.63;50.80;;;3.80;95.40;;;;;;2016630;29;20033;-77
2021/03/25 05:40:23;;;;;;;87.75;50.17;;;3.80;95.30;;;;;;2016904;29;20668;-77
2021/03/25 05:41:42;;;;;;;91.35;50.45;;;3.80;95.20;;;;;;2016331;29;20033;-77
2021/03/25 05:42:55;;;;;;;95.15;51.08;;;3.90;95.10;;;;;;2051142;28;20032;-77
2021/03/25 05:43:59;;;;;;;94.65;51.67;;;3.90;95.00;;;;;;2042271;29;20106;-76
2021/03/25 05:45:17;;;;;;;90.93;49.85;;;3.90;94.90;;;;;;2049009;28;20557;-77
2021/03/25 05:46:49;;;;;;;91.50;49.00;;;4.00;94.90;;;;;;2045174;28;20040;-77
2021/03/25 05:48:22;;;;;;;83.57;46.75;;;4.00;94.80;;;;;;2016657;29;20029;-77
2021/03/25 05:49:29;;;;;;;80.88;45.58;;;4.10;94.80;;;;;;2016849;29;20033;-77
2021/03/25 05:50:37;;;;;;;81.13;45.72;;;4.10;94.60;;;;;;2016816;29;20402;-76
2021/03/25 05:52:01;;;;;;;83.28;46.03;;;4.20;94.50;;;;;;2048600;29;20403;-77
2021/03/25 05:53:43;;;;;;;81.00;44.70;;;4.20;94.30;;;;;;2036191;29;20108;-76
2021/03/25 05:55:02;;;;;;;94.50;50.35;;;4.30;94.30;;;;;;2054329;28;20101;-78
2021/03/25 05:56:19;;;;;;;88.75;49.72;;;4.30;93.90;;;;;;2045343;28;20019;-76
2021/03/25 05:57:35;;;;;;;86.28;49.65;;;4.40;94.00;;;;;;2017420;29;20084;-76